Data for 07/12/2016

Time Sea-Level Adjusted Pressure Absolute Pressure Temperature Relative Humidity Dew Point   
(mb) (inHg) (mb) (inHg) (C) (F) (%) (C) (F)
00:05 1018 30.06 847 25.01 9.6 49.3 69 4.2 39.6
00:10 1018 30.06 847 25.01 9.6 49.2 70 4.4 39.9
00:15 1018 30.06 847 25.01 9.5 49.2 69 4.2 39.6
00:20 1018 30.06 847 25.01 9.7 49.5 68 4.1 39.5
00:25 1018 30.06 847 25.01 9.9 49.7 69 4.4 39.9
00:30 1018 30.06 847 25.01 9.8 49.6 69 4.4 40
00:35 1018 30.06 847 25.01 9.7 49.5 69 4.3 39.8
00:40 1018 30.06 847 25.01 9.8 49.6 70 4.5 40.2
00:45 1018 30.06 847 25.01 9.7 49.5 68 4.1 39.4
00:50 1018 30.06 847 25.01 9.9 49.7 68 4.3 39.7
00:55 1018 30.06 847 25.01 9.9 49.8 68 4.4 39.9
01:00 1018 30.06 847 25.01 9.9 49.8 68 4.4 39.9
01:05 1018 30.06 847 25.01 9.8 49.7 68 4.3 39.7
01:10 1018 30.06 847 25.01 9.8 49.6 69 4.3 39.8
01:15 1018 30.06 847 25.01 9.7 49.4 68 4.1 39.4
01:20 1018 30.06 847 25.01 9.7 49.4 68 4.1 39.4
01:25 1018 30.06 847 25.01 9.6 49.2 70 4.3 39.7
01:30 1018 30.06 847 25.01 9.3 48.8 71 4.3 39.7
01:35 1018 30.06 847 25.01 9 48.2 72 4.3 39.7
01:40 1018 30.06 847 25.01 8.8 47.9 71 3.8 38.9
01:45 1018 30.06 847 25.01 8.8 47.8 75 4.6 40.2
01:50 1018 30.06 847 25.01 8.6 47.4 75 4.4 40
01:55 1018 30.06 847 25.01 8.4 47.1 76 4.5 40
02:00 1018 30.06 847 25.01 8.3 46.9 78 4.6 40.3
02:05 1018 30.06 847 25.01 8.1 46.6 77 4.4 39.9
02:10 1018 30.06 847 25.01 8 46.3 77 4.1 39.4
02:15 1018 30.06 847 25.01 7.9 46.3 76 4 39.1
02:20 1018 30.06 847 25.01 8 46.5 76 4.1 39.3
02:25 1018 30.06 847 25.01 8.1 46.5 75 4 39.2
02:30 1018 30.06 847 25.01 8 46.3 76 4 39.3
02:35 1018 30.06 847 25.01 7.8 46.1 75 3.7 38.7
02:40 1018 30.06 847 25.01 7.9 46.3 75 3.8 38.8
02:45 1018 30.06 847 25.01 7.9 46.3 75 3.8 38.8
02:50 1018 30.06 847 25.01 7.9 46.2 75 3.8 38.8
02:55 1018 30.06 847 25.01 7.7 45.9 76 3.8 38.9
03:00 1018 30.06 847 25.01 7.5 45.5 77 3.8 38.8
03:05 1018 30.06 847 25.01 7.4 45.4 77 3.6 38.5
03:10 1018 30.06 847 25.01 7.4 45.4 77 3.7 38.6
03:15 1018 30.06 847 25.01 7.4 45.2 77 3.7 38.6
03:20 1017 30.03 847 25.01 7.2 44.9 78 3.6 38.5
03:25 1017 30.03 847 25.01 7.1 44.7 78 3.5 38.2
03:30 1017 30.03 847 25.01 6.9 44.5 78 3.4 38.2
03:35 1017 30.03 847 25.01 6.9 44.3 79 3.4 38.1
03:40 1017 30.03 847 25.01 6.8 44.3 79 3.4 38.1
03:45 1017 30.03 847 25.01 6.8 44.3 78 3.3 37.9
03:50 1017 30.03 847 25.01 6.8 44.3 78 3.2 37.7
03:55 1017 30.03 847 25.01 6.7 44.1 78 3.2 37.8
04:00 1018 30.06 847 25.01 6.5 43.6 79 3.1 37.6
04:05 1018 30.06 847 25.01 6.4 43.6 78 3 37.3
04:10 1018 30.06 847 25.01 6.4 43.6 78 2.9 37.3
04:15 1018 30.06 847 25.01 6.4 43.5 79 3 37.3
04:20 1018 30.06 847 25.01 6.3 43.4 79 3 37.4
04:25 1018 30.06 847 25.01 6.4 43.5 79 2.9 37.3
04:30 1018 30.06 847 25.01 6.4 43.5 79 3 37.3
04:35 1018 30.06 847 25.01 6.3 43.4 79 3 37.5
04:40 1018 30.06 847 25.01 6.2 43.2 80 2.9 37.3
04:45 1018 30.06 847 25.01 6.2 43.2 79 2.8 37.1
04:50 1018 30.06 847 25.01 6.3 43.4 78 2.9 37.1
04:55 1018 30.06 847 25.01 6.5 43.7 78 2.9 37.3
05:00 1018 30.06 847 25.01 6.6 43.8 77 2.9 37.2
05:05 1018 30.06 847 25.01 6.7 44 76 2.8 37
05:10 1018 30.06 847 25.01 6.8 44.2 76 2.8 37
05:15 1018 30.06 847 25.01 6.8 44.3 76 2.9 37.2
05:20 1018 30.06 847 25.01 6.8 44.3 76 2.8 37.1
05:25 1018 30.06 847 25.01 7 44.5 75 2.8 37
05:30 1018 30.06 847 25.01 7.2 45 74 2.8 37.1
05:35 1018 30.06 847 25.01 7.3 45.2 74 2.9 37.2
05:40 1018 30.06 847 25.01 7.4 45.4 73 2.9 37.3
05:45 1018 30.06 847 25.01 7.6 45.7 72 2.8 37.1
05:50 1018 30.06 847 25.01 7.8 46.1 72 3.1 37.6
05:55 1018 30.06 847 25.01 8.1 46.6 70 3 37.4
06:00 1018 30.06 847 25.01 8.3 47 69 3.1 37.6
06:05 1018 30.06 847 25.01 8.5 47.4 69 3.3 37.9
06:10 1018 30.06 847 25.01 8.7 47.6 70 3.6 38.4
06:15 1018 30.06 847 25.01 8.9 48 68 3.4 38
06:20 1018 30.06 847 25.01 8.9 48 68 3.3 37.9
06:25 1018 30.06 847 25.01 9.3 48.7 66 3.4 38
06:30 1018 30.06 847 25.01 9.6 49.2 65 3.4 38.2
06:35 1018 30.06 847 25.01 9.9 49.7 64 3.4 38.1
06:40 1018 30.06 847 25.01 10.2 50.4 63 3.5 38.4
06:45 1018 30.06 847 25.01 10.9 51.6 60 3.5 38.3
06:50 1018 30.06 847 25.01 11.2 52.2 58 3.4 38.1
06:55 1018 30.06 847 25.01 11.8 53.3 57 3.7 38.6
07:00 1018 30.06 847 25.01 12.4 54.3 56 3.9 39.1
07:05 1018 30.06 847 25.01 12.7 54.9 55 3.9 38.9
07:10 1018 30.06 847 25.01 13.1 55.5 54 4 39.2
07:15 1018 30.06 847 25.01 13.3 56 53 4.1 39.4
07:20 1018 30.06 847 25.01 13.7 56.7 52 4 39.2
07:25 1018 30.06 847 25.01 13.8 56.9 51 4.1 39.3
07:30 1018 30.06 847 25.01 13.9 57.1 51 4.2 39.5
07:35 1018 30.06 847 25.01 14.2 57.6 52 4.6 40.3
07:40 1018 30.06 847 25.01 14 57.3 51 4.3 39.7
07:45 1018 30.06 847 25.01 13.7 56.7 53 4.5 40.1
07:50 1018 30.06 847 25.01 13.8 56.9 55 4.9 40.8
07:55 1018 30.06 847 25.01 13.8 56.9 54 4.7 40.5
08:00 1018 30.06 847 25.01 13.9 57 53 4.5 40
08:05 1018 30.06 847 25.01 14.3 57.7 52 4.6 40.2
08:10 1018 30.06 847 25.01 14.2 57.5 50 4.1 39.4
08:15 1018 30.06 847 25.01 14.8 58.7 48 4 39.1
08:20 1018 30.06 847 25.01 15.2 59.4 47 4 39.2
08:25 1018 30.06 848 25.04 15.4 59.7 46 4 39.3
08:30 1018 30.06 847 25.01 15.3 59.6 48 4.6 40.3
08:35 1018 30.06 847 25.01 15.2 59.3 46 3.7 38.7
08:40 1018 30.06 847 25.01 15.5 59.8 47 4.4 39.9
08:45 1018 30.06 847 25.01 15.7 60.3 45 4 39.2
08:50 1018 30.06 847 25.01 15.9 60.5 46 4.2 39.6
08:55 1018 30.06 847 25.01 15.8 60.4 45 3.9 39
09:00 1018 30.06 847 25.01 15.6 60.1 46 4.2 39.6
09:05 1018 30.06 847 25.01 16 60.9 44 3.9 39
09:10 1018 30.06 847 25.01 16.1 60.9 45 4.3 39.8
09:15 1018 30.06 847 25.01 16 60.8 43 3.6 38.5
09:20 1018 30.06 847 25.01 16.4 61.5 42 3.7 38.7
09:25 1018 30.06 847 25.01 16.4 61.5 42 3.6 38.5
09:30 1018 30.06 847 25.01 16.4 61.6 44 4.2 39.5
09:35 1018 30.06 847 25.01 16.7 62 43 4.1 39.4
09:40 1018 30.06 847 25.01 17 62.5 41 3.7 38.6
09:45 1018 30.06 847 25.01 16.4 61.5 43 3.8 38.8
09:50 1018 30.06 847 25.01 16.5 61.6 42 3.6 38.4
09:55 1018 30.06 847 25.01 17.1 62.7 43 4.5 40
10:00 1018 30.06 847 25.01 17.6 63.6 39 3.6 38.5
10:05 1018 30.06 847 25.01 17.6 63.7 41 4.4 40
10:10 1018 30.06 847 25.01 17.7 63.8 41 4.5 40.1
10:15 1018 30.06 847 25.01 17.6 63.7 42 4.7 40.5
10:20 1018 30.06 847 25.01 17.5 63.5 41 4.3 39.8
10:25 1018 30.06 847 25.01 17.7 63.8 41 4.6 40.2
10:30 1018 30.06 847 25.01 17.8 64 40 4.3 39.7
10:35 1018 30.06 847 25.01 17.9 64.2 41 4.7 40.4
10:40 1018 30.06 847 25.01 17.9 64.2 40 4.3 39.7
10:45 1018 30.06 847 25.01 17.8 64.1 41 4.4 39.9
10:50 1018 30.06 847 25.01 17.9 64.3 38 3.5 38.3
10:55 1018 30.06 847 25.01 17.8 64.1 39 4 39.1
11:00 1018 30.06 847 25.01 18.4 65.1 38 4 39.2
11:05 1018 30.06 847 25.01 18.2 64.8 38 3.9 39.1
11:10 1018 30.06 847 25.01 18.4 65.1 37 3.6 38.6
11:15 1018 30.06 847 25.01 18.5 65.2 38 4 39.2
11:20 1018 30.06 847 25.01 18.4 65.1 37 3.7 38.7
11:25 1018 30.06 847 25.01 18.4 65.1 38 3.9 39
11:30 1018 30.06 847 25.01 18.8 65.8 37 3.9 39.1
11:35 1018 30.06 847 25.01 18.8 65.9 40 5.2 41.4
11:40 1018 30.06 847 25.01 19 66.2 38 4.3 39.8
11:45 1018 30.06 847 25.01 19.5 67.2 37 4.7 40.5
11:50 1018 30.06 847 25.01 19.6 67.3 38 5 40.9
11:55 1018 30.06 847 25.01 18.7 65.6 41 5.4 41.7
12:00 1017 30.03 847 25.01 17.8 64.1 41 4.6 40.2
12:05 1017 30.03 847 25.01 18.7 65.6 39 4.5 40.2
12:10 1018 30.06 847 25.01 19.5 67.1 37 4.4 40
12:15 1017 30.03 847 25.01 19.6 67.2 35 3.9 39.1
12:20 1017 30.03 847 25.01 19.4 66.9 38 4.8 40.6
12:25 1017 30.03 847 25.01 18.6 65.5 39 4.4 40
12:30 1017 30.03 847 25.01 19 66.2 38 4.4 39.9
12:35 1017 30.03 847 25.01 20 67.9 34 4 39.2
12:40 1017 30.03 847 25.01 19.2 66.6 37 4.3 39.7
12:45 1017 30.03 847 25.01 20.1 68.1 33 3.5 38.3
12:50 1017 30.03 846 24.98 20.4 68.7 33 3.8 38.8
12:55 1017 30.03 846 24.98 19.6 67.3 35 3.9 39.1
13:00 1017 30.03 846 24.98 20.5 68.8 32 3.3 38
13:05 1017 30.03 846 24.98 21.1 70.1 32 3.8 38.9
13:10 1017 30.03 846 24.98 20.6 69.1 34 4.2 39.6
13:15 1017 30.03 846 24.98 21 69.9 32 3.8 38.9
13:20 1017 30.03 846 24.98 21.4 70.4 32 4.2 39.6
13:25 1017 30.03 846 24.98 19.9 67.9 34 3.8 38.8
13:30 1017 30.03 846 24.98 20.6 69.1 32 3.7 38.6
13:35 1017 30.03 846 24.98 21.5 70.6 31 3.9 38.9
13:40 1017 30.03 846 24.98 22.2 71.9 27 2.7 36.8
13:45 1017 30.03 846 24.98 21.3 70.3 30 3.3 38
13:50 1017 30.03 846 24.98 22.1 71.7 28 2.8 37
13:55 1017 30.03 846 24.98 21.6 70.9 31 3.8 38.8
14:00 1017 30.03 846 24.98 21.9 71.4 29 3.3 38
14:05 1017 30.03 846 24.98 22.2 71.9 28 2.9 37.2
14:10 1017 30.03 846 24.98 22 71.5 25 1.5 34.7
14:15 1017 30.03 846 24.98 22.4 72.2 27 2.8 37
14:20 1017 30.03 846 24.98 22 71.6 27 2.2 36
14:25 1017 30.03 846 24.98 21.3 70.3 30 3 37.4
14:30 1017 30.03 846 24.98 21.1 70 27 1.7 35
14:35 1017 30.03 846 24.98 21.5 70.8 27 2.2 35.9
14:40 1017 30.03 846 24.98 22.4 72.4 25 1.6 34.9
14:45 1016 30 846 24.98 22.2 71.9 27 2.2 36
14:50 1017 30.03 846 24.98 22.7 72.9 25 2 35.6
14:55 1017 30.03 846 24.98 21.6 70.9 27 2.2 36
15:00 1016 30 846 24.98 21 69.8 29 2.3 36.1
15:05 1016 30 846 24.98 21.9 71.3 26 1.8 35.3
15:10 1016 30 846 24.98 22.2 71.9 26 2 35.6
15:15 1016 30 846 24.98 22.5 72.5 25 1.4 34.6
15:20 1016 30 846 24.98 22.3 72.2 26 2.3 36.1
15:25 1016 30 845 24.95 22.2 72 26 1.9 35.5
15:30 1016 30 845 24.95 22.6 72.6 25 1.7 35.1
15:35 1016 30 845 24.95 22.4 72.4 25 1.8 35.2
15:40 1016 30 845 24.95 21.9 71.4 26 1.4 34.6
15:45 1016 30 845 24.95 22.4 72.3 25 1.9 35.4
15:50 1016 30 845 24.95 22.7 72.9 24 1.4 34.6
15:55 1016 30 845 24.95 22.6 72.7 23 0.7 33.2
16:00 1016 30 845 24.95 22.8 73 23 0.5 33
16:05 1016 30 845 24.95 22.1 71.8 24 0.6 33
16:10 1016 30 845 24.95 22.4 72.3 23 0.5 32.9
16:15 1016 30 845 24.95 22.8 73.1 21 -0.2 31.7
16:20 1016 30 845 24.95 22.7 72.8 23 0.6 33.1
16:25 1016 30 845 24.95 22.6 72.7 23 0.7 33.3
16:30 1016 30 845 24.95 22.5 72.4 21 -0.5 31.2
16:35 1016 30 845 24.95 22.6 72.7 20 -1.2 29.9
16:40 1016 30 845 24.95 22.7 72.8 20 -0.9 30.3
16:45 1016 30 845 24.95 22.7 72.8 21 -0.9 30.4
16:50 1016 30 845 24.95 22.8 73.1 22 -0.1 31.9
16:55 1016 30 845 24.95 22.1 71.8 23 -0.1 31.9
17:00 1016 30 845 24.95 21.6 70.9 22 -0.7 30.7
17:05 1016 30 845 24.95 21.4 70.5 24 -0 32
17:10 1016 30 845 24.95 21.7 71.1 23 -0.1 31.8
17:15 1016 30 845 24.95 22.1 71.8 23 0.1 32.2
17:20 1016 30 845 24.95 22.4 72.2 23 0.4 32.8
17:25 1016 30 845 24.95 22.1 71.9 23 0.2 32.4
17:30 1016 30 846 24.98 21.3 70.4 24 0 32
17:35 1016 30 846 24.98 21 69.8 24 0 32
17:40 1016 30 846 24.98 20.8 69.5 24 -0.1 31.7
17:45 1017 30.03 846 24.98 20.7 69.2 25 0.2 32.4
17:50 1017 30.03 846 24.98 20.5 69 25 0.2 32.3
17:55 1018 30.06 847 25.01 19.9 67.7 33 3.5 38.3
18:00 1018 30.06 847 25.01 17.8 64 40 4.1 39.3
18:05 1018 30.06 847 25.01 16.1 60.9 54 6.9 44.3
18:10 1018 30.06 848 25.04 14.1 57.4 66 8 46.4
18:15 1019 30.09 848 25.04 13.1 55.5 67 7.2 44.9
18:20 1018 30.06 848 25.04 12.7 54.8 68 7 44.6
18:25 1018 30.06 848 25.04 12.8 55.1 67 7 44.5
18:30 1019 30.09 848 25.04 12.8 55 67 6.9 44.4
18:35 1019 30.09 848 25.04 12.8 55 66 6.7 44
18:40 1019 30.09 848 25.04 13 55.3 67 7 44.6
18:45 1019 30.09 848 25.04 13 55.5 66 7 44.6
18:50 1019 30.09 848 25.04 12.9 55.2 68 7.2 44.9
18:55 1019 30.09 848 25.04 12.6 54.7 69 7.1 44.8
19:00 1019 30.09 848 25.04 12.7 54.9 67 6.8 44.2
19:05 1019 30.09 848 25.04 12.8 55 65 6.5 43.7
19:10 1019 30.09 848 25.04 12.9 55.2 65 6.4 43.6
19:15 1019 30.09 848 25.04 13.1 55.6 63 6.2 43.2
19:20 1019 30.09 849 25.07 13.4 56.1 63 6.6 43.8
19:25 1020 30.12 849 25.07 13.4 56.1 61 6.2 43.1
19:30 1020 30.12 849 25.07 13.3 56 61 6 42.8
19:35 1020 30.12 849 25.07 13.3 56 62 6.2 43.1
19:40 1020 30.12 849 25.07 13.3 56 61 6 42.9
19:45 1020 30.12 849 25.07 13.3 55.9 61 6.1 43
19:50 1020 30.12 849 25.07 13.2 55.8 62 6 42.9
19:55 1020 30.12 849 25.07 13.3 56 59 5.5 41.9
20:00 1020 30.12 849 25.07 13.4 56.2 59 5.7 42.2
20:05 1020 30.12 849 25.07 13.5 56.3 59 5.8 42.4
20:10 1020 30.12 849 25.07 13.9 56.9 51 4.1 39.4
20:15 1020 30.12 849 25.07 14.4 57.9 52 4.7 40.5
20:20 1020 30.12 849 25.07 14.3 57.8 52 4.8 40.7
20:25 1020 30.12 849 25.07 14.5 58 49 3.9 39
20:30 1020 30.12 849 25.07 14.7 58.5 49 4.3 39.8
20:35 1020 30.12 849 25.07 14.1 57.4 59 6.3 43.4
20:40 1020 30.12 849 25.07 13.3 55.9 61 6.1 43
20:45 1020 30.12 849 25.07 13 55.3 62 5.9 42.7
20:50 1020 30.12 849 25.07 12.8 55 63 6 42.8
20:55 1020 30.12 849 25.07 12.6 54.7 66 6.4 43.4
21:00 1020 30.12 849 25.07 12.4 54.3 67 6.4 43.5
21:05 1020 30.12 850 25.1 12.4 54.3 65 6.1 43.1
21:10 1020 30.12 850 25.1 12.6 54.6 62 5.4 41.8
21:15 1020 30.12 850 25.1 12.8 55.1 62 5.7 42.3
21:20 1020 30.12 850 25.1 12.8 55.1 62 5.8 42.5
21:25 1021 30.15 850 25.1 12.8 55.1 61 5.6 42.1
21:30 1021 30.15 850 25.1 12.9 55.2 62 5.8 42.5
21:35 1021 30.15 850 25.1 13.1 55.5 61 5.8 42.4
21:40 1021 30.15 850 25.1 13.2 55.7 59 5.4 41.7
21:45 1021 30.15 850 25.1 13.3 55.9 58 5.3 41.6
21:50 1021 30.15 850 25.1 13.4 56 60 5.9 42.6
21:55 1021 30.15 850 25.1 13.3 55.9 61 6.1 42.9
22:00 1021 30.15 850 25.1 13 55.4 64 6.4 43.5
22:05 1021 30.15 850 25.1 12.4 54.3 66 6.4 43.5
22:10 1021 30.15 850 25.1 12.2 53.9 67 6.2 43.2
22:15 1021 30.15 850 25.1 12 53.6 68 6.3 43.3
22:20 1021 30.15 850 25.1 11.9 53.4 68 6.2 43.1
22:25 1021 30.15 850 25.1 11.7 53.1 69 6.3 43.3
22:30 1021 30.15 850 25.1 11.4 52.4 71 6.2 43.2
22:35 1021 30.15 850 25.1 11.2 52.1 70 5.9 42.7
22:40 1021 30.15 850 25.1 11 51.8 70 5.8 42.5
22:45 1021 30.15 850 25.1 11 51.8 70 5.9 42.5
22:50 1021 30.15 850 25.1 10.9 51.6 71 5.9 42.6
22:55 1021 30.15 850 25.1 10.8 51.4 71 5.7 42.3
23:00 1020 30.12 850 25.1 10.7 51.2 71 5.7 42.3
23:05 1020 30.12 850 25.1 10.6 51 71 5.7 42.2
23:10 1020 30.12 850 25.1 10.5 51 72 5.7 42.2
23:15 1020 30.12 850 25.1 10.5 50.8 72 5.6 42.1
23:20 1020 30.12 850 25.1 10.4 50.7 72 5.5 41.9
23:25 1020 30.12 850 25.1 10.2 50.4 73 5.6 42.1
23:30 1020 30.12 850 25.1 10 50 73 5.5 41.9
23:35 1020 30.12 850 25.1 9.9 49.9 74 5.5 41.9
23:40 1020 30.12 850 25.1 9.7 49.4 75 5.4 41.7
23:45 1020 30.12 850 25.1 9.7 49.5 73 5.2 41.3
23:50 1020 30.12 850 25.1 9.8 49.6 74 5.3 41.5
23:55 1020 30.12 850 25.1 9.7 49.4 73 5.2 41.3
24:00 1021 30.15 850 25.1 9.6 49.3 73 5 41